Belleville, Arkansas
Current Conditions -  °F | °C
As of 2:53 PM on Thursday 20 Nov 2014 (Local Time) from KRUE Reporting Station
Clear Clear  
Wind Chill: 55°   Ceiling: Unl
Heat Index: 55°   Visibility: 10mi
Dew Point: 30°   Wind: 8mph
Humidity: 38%   Direction: 80°E
Pressure: 30.13"   Gusts: NA
Location:  35.09°N, 93.45°W
Report Text: KRUE 202053Z AUTO 08007KT 10SM CLR 13/M01 A3013 RMK AO2 SLP202 T01281011 56024
Loading
Personal Weather Stations






























Interactive Weather Map New forecast layout! Learn more

10-Day Weather Forecast

Advertisements
Track Severe Weather on mobile